Terminal Aerodrome Forecast
Issued by NWS

Home | Current Version | Previous Version | Text Only | Print | Product List | Glossary On
Versions: 1 2 3 4 5 6 7 8 9 10 11 12 13 14 15 16 17 18 19 20
000
FTUS46 KMFR 220605 AAA
TAFRBG
TAF AMD
KRBG 220605Z 2206/2306 VRB03KT P6SM -SHRA SCT015 OVC035
     FM221200 00000KT 5SM -SHRA BR OVC010
     FM221800 03002KT 5SM BR OVC020
     FM222000 32002KT P6SM -SHRA OVC025
     FM230000 32006KT P6SM -SHRA BKN030=

USA.gov is the U.S. government's official web portal to all federal, state and local government web resources and services.